Time;durP1;ratioP1;P1;durP2;ratioP2;P2;SDS_P1;SDS_P2;PMS_P1;PMS_P2;Temp;Humidity;BMP_temperature;BMP_pressure;BME280_temperature;BME280_humidity;BME280_pressure;Samples;Min_cycle;Max_cycle;Signal;HPM_P1;HPM_P2
2023/04/27 00:02:12;;;;;;;10.80;6.97;;;11.30;92.70;;;;;;4979008;28;20027;-83
2023/04/27 00:04:38;;;;;;;8.85;6.38;;;11.30;92.60;;;;;;4960361;28;20082;-84
2023/04/27 00:07:04;;;;;;;10.70;7.45;;;11.40;92.60;;;;;;4976459;28;20388;-83
2023/04/27 00:09:30;;;;;;;13.77;6.32;;;11.40;92.70;;;;;;4963577;28;20023;-83
2023/04/27 00:11:56;;;;;;;12.60;7.43;;;11.40;92.70;;;;;;4973583;28;20034;-83
2023/04/27 00:14:27;;;;;;;12.10;7.03;;;11.30;92.90;;;;;;4961365;28;20046;-82
2023/04/27 00:16:53;;;;;;;8.90;6.38;;;11.30;92.60;;;;;;4977963;28;20139;-84
2023/04/27 00:19:19;;;;;;;9.23;7.00;;;11.30;92.80;;;;;;4962636;28;20023;-83
2023/04/27 00:21:45;;;;;;;10.35;7.30;;;11.30;92.80;;;;;;4967796;28;20028;-82
2023/04/27 00:24:11;;;;;;;8.05;6.60;;;11.30;92.70;;;;;;4959503;28;20082;-85
2023/04/27 00:26:37;;;;;;;7.00;6.00;;;11.40;92.80;;;;;;4956613;28;20078;-84
2023/04/27 00:29:03;;;;;;;10.27;7.22;;;11.40;92.50;;;;;;4957061;28;20028;-82
2023/04/27 00:31:29;;;;;;;11.32;7.20;;;11.50;92.40;;;;;;4960376;28;20022;-82
2023/04/27 00:33:55;;;;;;;12.02;6.78;;;11.50;92.50;;;;;;4971877;28;20031;-84
2023/04/27 00:36:21;;;;;;;9.50;7.35;;;11.50;92.40;;;;;;4974853;28;20249;-84
2023/04/27 00:38:47;;;;;;;11.98;7.32;;;11.50;92.50;;;;;;4966151;28;20090;-84
2023/04/27 00:41:12;;;;;;;10.73;7.60;;;11.50;92.40;;;;;;4958366;28;20054;-83
2023/04/27 00:43:43;;;;;;;9.18;7.80;;;11.50;92.30;;;;;;4977900;28;20451;-83
2023/04/27 00:46:10;;;;;;;9.90;6.93;;;11.50;92.60;;;;;;4973547;28;20104;-84
2023/04/27 00:48:36;;;;;;;11.80;6.85;;;11.50;92.80;;;;;;4962785;28;20019;-84
2023/04/27 00:51:04;;;;;;;8.65;6.50;;;11.40;92.60;;;;;;4966623;28;20039;-85
2023/04/27 00:53:31;;;;;;;11.05;7.28;;;11.50;92.40;;;;;;4964854;28;20019;-85
2023/04/27 00:55:57;;;;;;;9.50;8.52;;;11.50;92.50;;;;;;4975015;28;20034;-86
2023/04/27 00:58:23;;;;;;;9.77;7.63;;;11.40;92.60;;;;;;4973260;28;20034;-86
2023/04/27 01:00:49;;;;;;;8.70;7.05;;;11.40;92.90;;;;;;4961341;28;20015;-84
2023/04/27 01:03:16;;;;;;;12.40;8.55;;;11.30;93.00;;;;;;4981263;28;20030;-85
2023/04/27 01:05:42;;;;;;;10.98;7.85;;;11.30;93.20;;;;;;4985501;28;20054;-85
2023/04/27 01:08:08;;;;;;;8.93;6.90;;;11.20;93.30;;;;;;4972100;28;20062;-86
2023/04/27 01:10:36;;;;;;;10.57;7.88;;;11.20;93.30;;;;;;4979634;28;20503;-84
2023/04/27 01:13:02;;;;;;;;;;;11.20;93.50;;;;;;4986002;28;20030;-84
2023/04/27 01:15:28;;;;;;;11.32;7.15;;;11.30;93.30;;;;;;4985121;28;20315;-86
2023/04/27 01:18:01;;;;;;;12.40;7.80;;;11.30;93.20;;;;;;4971343;28;20035;-86
2023/04/27 01:20:31;;;;;;;14.95;8.07;;;11.40;92.90;;;;;;4977323;28;20086;-84
2023/04/27 01:22:57;;;;;;;13.70;7.88;;;11.50;92.80;;;;;;4995119;28;20046;-85
2023/04/27 01:25:24;;;;;;;15.20;8.35;;;11.50;92.70;;;;;;4989397;28;20438;-85
2023/04/27 01:27:50;;;;;;;15.63;7.95;;;11.50;92.80;;;;;;4993252;28;20038;-86
2023/04/27 01:30:15;;;;;;;14.77;8.18;;;11.50;93.00;;;;;;4985425;28;20007;-83
2023/04/27 01:32:41;;;;;;;13.18;7.70;;;11.50;92.90;;;;;;4996962;28;20023;-83
2023/04/27 01:35:08;;;;;;;12.18;8.02;;;11.50;93.00;;;;;;4972078;28;20062;-85
2023/04/27 01:37:34;;;;;;;11.27;7.70;;;11.50;93.10;;;;;;4984619;28;20490;-84
2023/04/27 01:40:00;;;;;;;11.85;8.57;;;11.40;93.30;;;;;;4969356;28;20057;-85
2023/04/27 01:42:26;;;;;;;13.57;8.40;;;11.30;93.30;;;;;;4961839;28;20031;-85
2023/04/27 01:44:52;;;;;;;14.32;8.75;;;11.30;93.30;;;;;;4959578;28;20109;-85
2023/04/27 01:47:18;;;;;;;12.02;7.72;;;11.30;93.50;;;;;;4969119;28;20055;-86
2023/04/27 01:49:44;;;;;;;13.23;8.13;;;11.20;93.60;;;;;;4970865;28;20349;-84
2023/04/27 01:52:10;;;;;;;8.73;7.53;;;11.10;93.80;;;;;;4965150;28;20103;-83
2023/04/27 01:54:35;;;;;;;14.23;8.43;;;11.10;94.00;;;;;;4971471;28;20030;-84
2023/04/27 01:57:02;;;;;;;9.00;7.22;;;11.00;94.00;;;;;;4966309;28;20043;-86
2023/04/27 01:59:28;;;;;;;14.38;8.38;;;11.00;94.00;;;;;;4976330;28;20061;-83
2023/04/27 02:01:55;;;;;;;10.13;7.80;;;11.00;94.30;;;;;;4969680;28;20031;-87
2023/04/27 02:04:21;;;;;;;11.07;7.63;;;10.90;94.40;;;;;;4970589;28;20030;-85
2023/04/27 02:06:47;;;;;;;11.30;7.90;;;10.90;94.50;;;;;;4983993;28;20039;-85
2023/04/27 02:09:13;;;;;;;12.57;8.45;;;10.90;94.60;;;;;;4970513;28;20392;-82
2023/04/27 02:11:39;;;;;;;15.32;9.63;;;10.90;94.70;;;;;;4947094;29;20514;-84
2023/04/27 02:14:06;;;;;;;14.02;9.32;;;10.80;94.60;;;;;;4962155;28;20146;-83
2023/04/27 02:16:32;;;;;;;15.73;9.55;;;10.90;94.60;;;;;;4976631;28;20031;-83
2023/04/27 02:18:58;;;;;;;11.75;9.02;;;10.80;94.80;;;;;;4956814;28;20034;-84
2023/04/27 02:21:24;;;;;;;16.70;9.00;;;10.90;94.80;;;;;;4960572;28;20038;-84
2023/04/27 02:23:50;;;;;;;19.00;9.15;;;10.90;94.90;;;;;;4958418;28;20019;-84
2023/04/27 02:26:18;;;;;;;19.40;9.50;;;10.90;94.90;;;;;;4940214;28;20023;-84
2023/04/27 02:28:45;;;;;;;14.68;10.35;;;10.90;95.00;;;;;;4950639;28;20037;-83
2023/04/27 02:31:11;;;;;;;12.30;10.18;;;11.00;95.10;;;;;;4975375;28;20513;-85
2023/04/27 02:33:37;;;;;;;19.38;10.15;;;11.00;95.10;;;;;;4964517;28;20037;-83
2023/04/27 02:36:03;;;;;;;13.00;9.38;;;11.00;95.10;;;;;;4974535;28;20042;-83
2023/04/27 02:38:29;;;;;;;13.52;9.57;;;11.00;95.50;;;;;;4951613;28;20035;-83
2023/04/27 02:40:55;;;;;;;12.65;9.45;;;11.10;95.20;;;;;;4988014;28;20038;-83
2023/04/27 02:43:21;;;;;;;13.07;9.02;;;11.20;95.10;;;;;;4972860;28;20016;-84
2023/04/27 02:45:47;;;;;;;14.60;8.95;;;11.20;95.10;;;;;;4969641;28;20026;-82
2023/04/27 02:48:13;;;;;;;12.77;8.50;;;11.20;95.00;;;;;;4976210;28;20469;-82
2023/04/27 02:50:43;;;;;;;18.45;9.98;;;11.30;95.00;;;;;;4983915;28;20069;-84
2023/04/27 02:53:10;;;;;;;13.23;8.50;;;11.30;95.00;;;;;;4964593;28;20011;-85
2023/04/27 02:55:36;;;;;;;13.23;9.50;;;11.40;95.00;;;;;;4986462;28;20023;-84
2023/04/27 02:58:02;;;;;;;15.32;9.48;;;11.50;95.10;;;;;;4970822;28;20048;-84
2023/04/27 03:00:28;;;;;;;10.88;8.57;;;11.60;94.80;;;;;;4948263;28;20031;-84
2023/04/27 03:02:54;;;;;;;17.08;9.50;;;11.60;94.40;;;;;;4976885;28;20488;-84
2023/04/27 03:05:21;;;;;;;14.10;10.23;;;11.70;94.60;;;;;;4967991;28;20489;-81
2023/04/27 03:07:46;;;;;;;14.98;9.48;;;11.80;94.70;;;;;;4976862;28;20043;-83
2023/04/27 03:10:12;;;;;;;13.65;9.63;;;11.90;94.70;;;;;;4980725;28;20397;-84
2023/04/27 03:12:38;;;;;;;13.02;10.52;;;12.00;94.70;;;;;;4977016;28;20023;-84
2023/04/27 03:15:04;;;;;;;16.92;10.80;;;12.10;94.50;;;;;;4989203;28;20022;-82
2023/04/27 03:17:30;;;;;;;12.52;10.32;;;12.20;94.40;;;;;;4954841;28;20134;-84
2023/04/27 03:19:56;;;;;;;21.33;10.63;;;12.30;94.20;;;;;;4969109;28;20027;-83
2023/04/27 03:22:22;;;;;;;14.80;9.73;;;12.40;94.20;;;;;;4975122;28;20034;-85
2023/04/27 03:24:48;;;;;;;12.82;9.40;;;12.50;94.10;;;;;;4975057;28;20026;-83
2023/04/27 03:27:14;;;;;;;17.20;10.65;;;12.60;93.60;;;;;;4959821;28;20070;-85
2023/04/27 03:29:40;;;;;;;14.43;9.82;;;12.70;93.20;;;;;;4967238;28;20075;-84
2023/04/27 03:32:06;;;;;;;23.70;11.57;;;12.80;92.50;;;;;;4985942;28;20051;-85
2023/04/27 03:34:32;;;;;;;16.35;10.38;;;12.80;92.60;;;;;;4966008;28;20042;-85
2023/04/27 03:36:58;;;;;;;18.17;11.50;;;13.00;92.40;;;;;;4981903;28;20015;-85
2023/04/27 03:39:24;;;;;;;18.77;11.25;;;13.10;92.00;;;;;;5004130;28;20027;-84
2023/04/27 03:41:50;;;;;;;19.33;10.88;;;13.30;91.60;;;;;;4974309;28;20055;-84
2023/04/27 03:44:16;;;;;;;17.30;11.45;;;13.30;91.10;;;;;;4968973;28;20031;-84
2023/04/27 03:46:42;;;;;;;26.23;12.77;;;13.30;91.00;;;;;;4971483;28;20114;-84
2023/04/27 03:49:08;;;;;;;23.98;13.38;;;13.30;91.10;;;;;;4969708;28;20032;-84
2023/04/27 03:51:36;;;;;;;26.05;13.82;;;13.30;91.30;;;;;;4979580;28;20094;-85
2023/04/27 03:54:02;;;;;;;30.02;14.13;;;13.30;91.10;;;;;;4962896;28;21514;-87
2023/04/27 03:56:28;;;;;;;26.42;14.20;;;13.40;91.30;;;;;;4973326;28;20023;-86
2023/04/27 03:58:54;;;;;;;25.98;13.25;;;13.50;91.20;;;;;;4963482;28;20023;-82
2023/04/27 04:01:20;;;;;;;31.50;13.85;;;13.70;91.30;;;;;;4966337;28;20019;-82
2023/04/27 04:03:46;;;;;;;31.45;14.60;;;13.90;90.90;;;;;;4962511;28;20170;-82
2023/04/27 04:06:12;;;;;;;25.27;14.10;;;14.10;90.70;;;;;;4973996;28;20038;-85
2023/04/27 04:08:38;;;;;;;29.60;13.43;;;14.20;91.00;;;;;;4971975;28;20400;-81
2023/04/27 04:11:04;;;;;;;29.67;16.65;;;14.30;90.70;;;;;;4976561;28;20030;-85
2023/04/27 04:13:30;;;;;;;26.95;13.27;;;14.30;90.20;;;;;;4991299;28;20045;-84
2023/04/27 04:16:07;;;;;;;24.00;12.40;;;14.40;88.60;;;;;;4972165;28;20090;-84
2023/04/27 04:18:34;;;;;;;22.65;12.80;;;14.50;89.10;;;;;;4975645;28;20033;-85
2023/04/27 04:21:00;;;;;;;23.97;13.10;;;14.60;88.50;;;;;;4977306;28;20027;-85
2023/04/27 04:23:26;;;;;;;25.45;13.75;;;14.70;88.10;;;;;;4981633;28;20266;-86
2023/04/27 04:25:56;;;;;;;28.40;13.93;;;14.80;87.20;;;;;;4963681;28;20023;-85
2023/04/27 04:28:23;;;;;;;22.40;12.77;;;14.90;86.50;;;;;;4959354;28;20065;-84
2023/04/27 04:30:49;;;;;;;18.10;11.77;;;15.00;85.20;;;;;;4988958;28;20030;-86
2023/04/27 04:33:16;;;;;;;24.35;13.80;;;15.00;84.70;;;;;;4972552;28;20108;-85
2023/04/27 04:35:42;;;;;;;25.70;13.23;;;15.20;84.20;;;;;;4967185;28;20023;-86
2023/04/27 04:38:08;;;;;;;19.45;12.70;;;15.20;84.30;;;;;;4971843;28;20046;-86
2023/04/27 04:40:35;;;;;;;27.40;13.98;;;15.50;85.00;;;;;;4956542;28;20384;-85
2023/04/27 04:43:01;;;;;;;20.70;14.10;;;16.00;84.00;;;;;;4966611;28;20054;-85
2023/04/27 04:45:27;;;;;;;16.17;11.52;;;16.80;81.50;;;;;;4978035;28;20023;-87
2023/04/27 04:47:54;;;;;;;14.83;10.77;;;17.90;78.30;;;;;;4980628;28;20495;-85
2023/04/27 04:50:20;;;;;;;19.90;11.13;;;18.80;70.20;;;;;;4983227;28;20480;-87
2023/04/27 04:52:46;;;;;;;15.20;11.20;;;18.80;69.60;;;;;;4974847;28;20023;-86
2023/04/27 04:55:12;;;;;;;25.25;12.13;;;19.10;68.20;;;;;;4969737;28;20027;-85
2023/04/27 04:57:37;;;;;;;22.25;13.65;;;19.50;67.40;;;;;;4975227;28;20023;-86
2023/04/27 05:00:06;;;;;;;22.10;13.57;;;20.10;66.50;;;;;;4983930;28;20080;-85
2023/04/27 05:02:32;;;;;;;21.20;13.48;;;21.00;64.70;;;;;;4960304;28;20457;-85
2023/04/27 05:04:58;;;;;;;23.35;14.20;;;21.70;62.00;;;;;;4982276;28;20075;-85
2023/04/27 05:07:24;;;;;;;20.83;11.60;;;22.40;59.70;;;;;;4988092;28;20034;-85
2023/04/27 05:09:50;;;;;;;19.05;11.65;;;22.80;56.30;;;;;;4974992;28;20027;-85
2023/04/27 05:12:16;;;;;;;26.27;12.35;;;23.10;55.70;;;;;;4989789;28;20027;-84
2023/04/27 05:14:43;;;;;;;17.25;10.98;;;23.60;55.00;;;;;;4967036;28;20389;-86
2023/04/27 05:17:08;;;;;;;24.90;11.23;;;24.30;52.80;;;;;;4961667;28;20060;-86
2023/04/27 05:19:34;;;;;;;20.90;11.20;;;24.70;51.60;;;;;;4966088;28;20019;-85
2023/04/27 05:22:00;;;;;;;11.45;10.05;;;25.00;50.20;;;;;;4987727;28;20070;-85
2023/04/27 05:24:26;;;;;;;27.10;13.20;;;25.50;48.90;;;;;;4975395;28;20026;-88
2023/04/27 05:26:52;;;;;;;20.08;12.68;;;25.90;48.30;;;;;;4947690;28;20038;-85
2023/04/27 05:29:18;;;;;;;27.95;12.73;;;26.40;47.20;;;;;;4970515;28;20029;-85
2023/04/27 05:31:44;;;;;;;18.60;12.50;;;26.80;46.10;;;;;;4976822;28;20019;-83
2023/04/27 05:34:10;;;;;;;21.63;14.10;;;27.20;45.40;;;;;;4976230;28;20023;-84
2023/04/27 05:36:36;;;;;;;20.55;13.90;;;27.60;44.80;;;;;;4974567;28;20031;-85
2023/04/27 05:39:02;;;;;;;19.60;11.77;;;27.70;43.40;;;;;;4983864;28;20035;-84
2023/04/27 05:41:32;;;;;;;17.23;11.80;;;27.50;43.40;;;;;;4977391;28;20033;-84
2023/04/27 05:43:58;;;;;;;21.65;12.93;;;28.00;43.60;;;;;;4993975;28;20534;-85
2023/04/27 05:46:24;;;;;;;24.00;14.00;;;28.40;42.30;;;;;;4961008;28;20031;-82
2023/04/27 05:48:49;;;;;;;23.80;13.93;;;28.70;42.40;;;;;;4963709;28;20035;-84
2023/04/27 05:51:16;;;;;;;22.83;13.48;;;29.40;41.80;;;;;;4971964;28;20085;-84
2023/04/27 05:53:41;;;;;;;22.45;12.13;;;29.50;40.90;;;;;;4967691;28;20050;-85
2023/04/27 05:56:08;;;;;;;26.92;12.25;;;29.60;40.60;;;;;;4975993;28;20380;-83
2023/04/27 05:58:33;;;;;;;24.48;12.52;;;29.60;40.10;;;;;;4963794;28;20019;-84
2023/04/27 06:01:00;;;;;;;19.23;12.95;;;29.70;40.30;;;;;;4972543;28;20046;-83
2023/04/27 06:03:26;;;;;;;18.80;10.52;;;30.60;39.70;;;;;;4951209;28;20082;-84
2023/04/27 06:05:59;;;;;;;25.43;10.17;;;31.60;38.80;;;;;;4970941;28;20050;-83
2023/04/27 06:08:26;;;;;;;14.30;8.55;;;32.50;37.70;;;;;;4962443;28;20516;-85
2023/04/27 06:10:52;;;;;;;;;;;33.00;35.30;;;;;;4972948;28;20069;-85
2023/04/27 06:13:18;;;;;;;16.35;8.63;;;32.50;37.10;;;;;;4946023;28;19962;-86
2023/04/27 06:15:45;;;;;;;11.30;5.85;;;32.20;35.30;;;;;;4939069;28;20396;-85
2023/04/27 06:18:11;;;;;;;9.18;5.38;;;31.50;34.70;;;;;;4939179;28;20094;-86
2023/04/27 06:20:38;;;;;;;15.35;6.57;;;29.30;35.90;;;;;;4940176;28;20865;-84
2023/04/27 06:23:04;;;;;;;22.27;7.73;;;28.50;38.30;;;;;;4957508;28;20484;-86
2023/04/27 06:25:33;;;;;;;14.30;7.53;;;29.70;37.80;;;;;;4941467;28;20610;-85
2023/04/27 06:27:59;;;;;;;16.25;7.43;;;31.30;37.10;;;;;;4958869;28;20049;-86
2023/04/27 06:30:25;;;;;;;18.65;7.47;;;32.10;35.90;;;;;;4990149;28;20025;-85
2023/04/27 06:32:52;;;;;;;9.50;7.80;;;32.10;35.30;;;;;;4971206;28;20037;-84
2023/04/27 06:35:21;;;;;;;17.10;7.40;;;32.60;34.40;;;;;;4986540;28;20027;-84
2023/04/27 06:37:47;;;;;;;10.27;6.25;;;32.80;34.30;;;;;;4978918;28;20086;-85
2023/04/27 06:40:13;;;;;;;11.50;6.70;;;31.90;33.90;;;;;;4986811;28;20022;-83
2023/04/27 06:42:39;;;;;;;12.68;6.00;;;31.30;34.70;;;;;;4980448;28;20023;-84
2023/04/27 06:45:06;;;;;;;8.60;5.73;;;31.30;34.80;;;;;;4959141;28;20448;-88
2023/04/27 06:47:32;;;;;;;14.95;6.15;;;32.20;34.80;;;;;;4958869;28;20307;-83
2023/04/27 06:49:58;;;;;;;12.30;5.82;;;34.40;33.80;;;;;;4978949;28;20030;-86
2023/04/27 06:52:24;;;;;;;11.63;4.97;;;34.50;32.90;;;;;;4980104;28;20038;-84
2023/04/27 06:54:49;;;;;;;9.73;5.17;;;34.70;31.60;;;;;;4977798;28;20393;-85
2023/04/27 06:57:15;;;;;;;13.10;5.20;;;33.40;31.90;;;;;;4977024;28;20082;-86
2023/04/27 06:59:41;;;;;;;12.57;5.63;;;33.30;32.60;;;;;;4960748;28;20046;-87
2023/04/27 07:02:07;;;;;;;9.73;4.73;;;32.80;32.40;;;;;;4961854;28;20444;-85
2023/04/27 07:04:33;;;;;;;6.57;5.13;;;32.60;33.00;;;;;;4934786;28;1283962;-85
2023/04/27 07:06:59;;;;;;;12.32;4.80;;;33.40;33.00;;;;;;4966385;28;20051;-83
2023/04/27 07:09:27;;;;;;;8.20;5.22;;;32.80;32.30;;;;;;4953017;28;20018;-85
2023/04/27 07:11:53;;;;;;;11.98;4.95;;;33.00;32.80;;;;;;4957615;28;20105;-84
2023/04/27 07:14:29;;;;;;;11.57;5.70;;;33.30;32.40;;;;;;4980571;28;20357;-87
2023/04/27 07:17:22;;;;;;;11.80;5.20;;;34.50;32.60;;;;;;4983620;28;20046;-89
2023/04/27 07:20:20;;;;;;;9.35;4.55;;;35.30;31.70;;;;;;4951631;28;20027;-84
2023/04/27 07:22:45;;;;;;;9.70;4.63;;;36.40;30.80;;;;;;4960767;28;20102;-82
2023/04/27 07:25:11;;;;;;;6.90;3.70;;;35.10;30.20;;;;;;4961072;28;20050;-79
2023/04/27 07:27:38;;;;;;;8.27;4.10;;;33.70;30.60;;;;;;4975968;28;20856;-81
2023/04/27 07:30:06;;;;;;;;;;;32.30;31.90;;;;;;4968583;28;20539;-83
2023/04/27 07:32:32;;;;;;;9.55;3.72;;;32.40;32.30;;;;;;4949831;28;19919;-82
2023/04/27 07:34:57;;;;;;;6.70;3.75;;;32.30;31.70;;;;;;4962276;28;20019;-81
2023/04/27 07:37:23;;;;;;;8.80;3.87;;;32.00;31.40;;;;;;4977727;28;20166;-80
2023/04/27 07:39:53;;;;;;;5.93;3.73;;;31.80;32.00;;;;;;4967033;28;20023;-83
2023/04/27 07:42:21;;;;;;;13.07;4.38;;;32.50;32.10;;;;;;4974176;28;20073;-80
2023/04/27 07:44:49;;;;;;;8.82;4.55;;;34.00;31.60;;;;;;4970627;28;20034;-79
2023/04/27 07:47:17;;;;;;;6.20;4.10;;;34.90;29.90;;;;;;4977790;28;20079;-80
2023/04/27 07:49:45;;;;;;;7.18;4.43;;;32.50;30.50;;;;;;4981412;28;20019;-78
2023/04/27 07:52:11;;;;;;;8.43;4.80;;;31.00;32.20;;;;;;4956586;28;20032;-77
2023/04/27 07:54:38;;;;;;;6.43;5.05;;;30.60;33.20;;;;;;4956764;28;20054;-79
2023/04/27 07:57:09;;;;;;;8.50;5.30;;;31.00;32.80;;;;;;4956577;28;20031;-78
2023/04/27 07:59:35;;;;;;;9.68;6.60;;;30.70;33.20;;;;;;4957148;28;20058;-80
2023/04/27 08:02:01;;;;;;;10.25;6.90;;;31.20;33.40;;;;;;4963845;28;20031;-80
2023/04/27 08:04:27;;;;;;;10.90;6.63;;;31.80;33.00;;;;;;4970493;28;20027;-80
2023/04/27 08:06:53;;;;;;;13.83;6.83;;;32.30;32.80;;;;;;4964961;28;20050;-81
2023/04/27 08:09:19;;;;;;;10.03;6.97;;;33.70;32.40;;;;;;4969391;28;20291;-80
2023/04/27 08:11:45;;;;;;;9.45;6.97;;;36.40;30.30;;;;;;4972402;28;20031;-77
2023/04/27 08:14:12;;;;;;;9.48;6.97;;;36.30;30.70;;;;;;4974665;28;20391;-78
2023/04/27 08:16:42;;;;;;;10.43;7.03;;;37.20;30.00;;;;;;4974580;28;20037;-78
2023/04/27 08:19:11;;;;;;;12.32;7.68;;;38.30;30.00;;;;;;4974356;28;20026;-78
2023/04/27 08:21:37;;;;;;;13.73;11.27;;;38.80;29.20;;;;;;4974528;28;20035;-79
2023/04/27 08:24:03;;;;;;;;;;;39.20;29.10;;;;;;4975003;28;20178;-78
2023/04/27 08:26:29;;;;;;;15.63;8.35;;;39.30;29.70;;;;;;4974688;28;19906;-77
2023/04/27 08:28:56;;;;;;;9.48;7.40;;;38.90;29.30;;;;;;4957878;28;20396;-77
2023/04/27 08:31:23;;;;;;;9.93;7.45;;;37.70;29.00;;;;;;4967205;28;20437;-77
2023/04/27 08:33:50;;;;;;;12.10;7.68;;;35.20;30.00;;;;;;4964653;28;20054;-78
2023/04/27 08:36:15;;;;;;;;;;;32.80;31.60;;;;;;4966723;28;20428;-80
2023/04/27 08:38:41;;;;;;;13.82;8.57;;;32.00;33.00;;;;;;4968886;28;19913;-79
2023/04/27 08:41:07;;;;;;;15.53;6.97;;;31.90;33.50;;;;;;4966880;28;20396;-78
2023/04/27 08:43:34;;;;;;;11.60;6.87;;;32.50;33.90;;;;;;4963951;28;20620;-79
2023/04/27 08:46:01;;;;;;;11.65;6.80;;;33.60;32.60;;;;;;4941101;28;20116;-78
2023/04/27 08:48:27;;;;;;;7.13;5.53;;;33.70;31.20;;;;;;4960170;28;20035;-81
2023/04/27 08:50:56;;;;;;;10.15;5.95;;;32.90;31.30;;;;;;4972528;28;20510;-79
2023/04/27 08:53:22;;;;;;;7.85;6.32;;;33.00;31.80;;;;;;4969746;28;20412;-81
2023/04/27 08:55:49;;;;;;;;;;;33.70;31.50;;;;;;4972929;28;20033;-77
2023/04/27 08:58:15;;;;;;;10.70;5.90;;;34.40;32.10;;;;;;4971772;28;19907;-80
2023/04/27 09:00:43;;;;;;;7.00;5.18;;;34.60;30.50;;;;;;4974227;28;20418;-79
2023/04/27 09:03:22;;;;;;;9.10;6.28;;;34.60;31.10;;;;;;4966656;28;20117;-78
2023/04/27 09:05:48;;;;;;;10.73;6.07;;;36.00;31.00;;;;;;4966056;28;20036;-77
2023/04/27 09:08:14;;;;;;;9.88;4.75;;;36.70;29.90;;;;;;4964778;28;20043;-79
2023/04/27 09:10:47;;;;;;;9.15;5.15;;;36.30;30.10;;;;;;4964844;28;20023;-82
2023/04/27 09:13:13;;;;;;;5.70;4.43;;;36.70;30.00;;;;;;4972057;28;20039;-80
2023/04/27 09:15:44;;;;;;;10.30;5.70;;;37.20;29.80;;;;;;4971095;28;20026;-79
2023/04/27 09:18:18;;;;;;;5.95;5.28;;;37.00;29.60;;;;;;4964704;28;20097;-77
2023/04/27 09:20:51;;;;;;;11.07;5.45;;;37.10;29.90;;;;;;4960182;28;20022;-79
2023/04/27 09:23:30;;;;;;;7.88;5.30;;;37.40;29.90;;;;;;4956959;28;20019;-78
2023/04/27 09:26:02;;;;;;;9.15;5.88;;;37.80;29.60;;;;;;4960032;28;20110;-80
2023/04/27 09:28:33;;;;;;;8.20;6.57;;;37.70;29.50;;;;;;4961338;28;20039;-78
2023/04/27 09:31:01;;;;;;;10.27;5.50;;;37.70;29.40;;;;;;4962888;28;20034;-79
2023/04/27 09:33:29;;;;;;;10.27;4.82;;;37.60;29.70;;;;;;4960811;28;20094;-79
2023/04/27 09:35:57;;;;;;;15.20;7.70;;;38.00;29.10;;;;;;4964000;28;20074;-79
2023/04/27 09:38:23;;;;;;;8.20;5.32;;;;;;;;;;4959680;28;20038;-80
2023/04/27 09:40:50;;;;;;;;;;;38.30;28.60;;;;;;4963502;28;20022;-79
2023/04/27 09:43:16;;;;;;;6.13;5.50;;;37.90;29.30;;;;;;4964547;28;19910;-78
2023/04/27 09:45:42;;;;;;;7.18;5.00;;;37.30;29.10;;;;;;4963277;28;20084;-80
2023/04/27 09:48:10;;;;;;;10.55;4.53;;;36.00;29.80;;;;;;4975672;28;20042;-78
2023/04/27 09:50:37;;;;;;;12.63;4.40;;;35.80;30.20;;;;;;4982622;28;20114;-79
2023/04/27 09:53:09;;;;;;;13.27;6.10;;;36.60;29.90;;;;;;4977984;28;20027;-79
2023/04/27 09:55:55;;;;;;;7.70;4.40;;;37.10;29.50;;;;;;4974345;28;20018;-78
2023/04/27 09:58:31;;;;;;;7.45;4.50;;;37.30;29.10;;;;;;4965930;28;20072;-77
2023/04/27 10:01:16;;;;;;;;;;;37.80;29.10;;;;;;4954107;28;20516;-81
2023/04/27 10:04:02;;;;;;;9.52;5.15;;;37.80;29.40;;;;;;4969000;28;19910;-80
2023/04/27 10:06:57;;;;;;;10.07;7.32;;;38.00;28.80;;;;;;4968979;28;20085;-79
2023/04/27 10:09:23;;;;;;;;;;;38.80;28.70;;;;;;4975781;28;20442;-78
2023/04/27 10:11:51;;;;;;;6.35;3.88;;;38.90;29.10;;;;;;4975086;28;20420;-78
2023/04/27 10:14:19;;;;;;;6.43;4.10;;;37.80;28.50;;;;;;4976615;28;20051;-79
2023/04/27 10:16:56;;;;;;;6.25;4.90;;;36.30;29.00;;;;;;4972023;28;20044;-79
2023/04/27 10:19:23;;;;;;;8.88;4.95;;;35.80;29.80;;;;;;4966971;28;20090;-80
2023/04/27 10:21:56;;;;;;;5.90;4.80;;;36.00;29.80;;;;;;4942822;28;20023;-77
2023/04/27 10:24:43;;;;;;;5.53;4.68;;;35.50;29.70;;;;;;4957246;28;20037;-78
2023/04/27 10:27:11;;;;;;;5.57;4.57;;;33.80;30.20;;;;;;4976678;28;20066;-79
2023/04/27 10:29:42;;;;;;;7.72;4.70;;;32.00;31.50;;;;;;4975450;28;20045;-79
2023/04/27 10:32:17;;;;;;;7.60;4.55;;;30.10;32.10;;;;;;4975628;28;20035;-80
2023/04/27 10:34:46;;;;;;;6.20;5.03;;;28.20;34.80;;;;;;4974278;28;20023;-81
2023/04/27 10:37:13;;;;;;;5.53;3.97;;;27.20;35.90;;;;;;4970134;28;20110;-80
2023/04/27 10:39:43;;;;;;;6.72;4.30;;;26.50;36.60;;;;;;4976708;28;20066;-77
2023/04/27 10:42:10;;;;;;;6.55;4.72;;;25.70;37.20;;;;;;4976451;28;20026;-79
2023/04/27 10:44:37;;;;;;;5.35;4.88;;;25.10;38.40;;;;;;4977238;28;20033;-80
2023/04/27 10:47:13;;;;;;;;;;;24.50;39.80;;;;;;4958161;28;20594;-78
2023/04/27 10:49:39;;;;;;;10.82;7.38;;;24.00;40.70;;;;;;4974684;28;19910;-80
2023/04/27 10:52:05;;;;;;;12.93;9.38;;;23.40;42.90;;;;;;4959459;28;20070;-80
2023/04/27 10:54:32;;;;;;;9.15;6.25;;;23.30;43.20;;;;;;4979418;28;20042;-80
2023/04/27 10:57:02;;;;;;;9.33;7.43;;;23.50;43.20;;;;;;4958600;28;20086;-81
2023/04/27 10:59:28;;;;;;;10.95;8.48;;;23.50;42.90;;;;;;4975785;28;20026;-81
2023/04/27 11:01:54;;;;;;;6.97;6.18;;;23.50;43.00;;;;;;4974944;28;20018;-79
2023/04/27 11:04:20;;;;;;;8.05;5.47;;;23.50;43.00;;;;;;4975406;28;20094;-79
2023/04/27 11:06:46;;;;;;;16.42;5.70;;;23.20;43.60;;;;;;4964818;28;20032;-81
2023/04/27 11:09:13;;;;;;;10.32;6.13;;;22.50;45.50;;;;;;4968899;28;20468;-78
2023/04/27 11:11:44;;;;;;;8.68;6.07;;;21.90;47.00;;;;;;4973735;28;20050;-78
2023/04/27 11:14:22;;;;;;;11.75;6.75;;;21.30;50.00;;;;;;4971333;28;20035;-79
2023/04/27 11:16:48;;;;;;;15.85;7.55;;;20.40;54.20;;;;;;4962248;28;20114;-80
2023/04/27 11:19:14;;;;;;;11.90;8.88;;;19.70;57.50;;;;;;4962715;28;20102;-79
2023/04/27 11:21:41;;;;;;;10.98;8.27;;;;;;;;;;4943603;28;20023;-78
2023/04/27 11:24:08;;;;;;;21.00;11.83;;;18.70;63.10;;;;;;4960917;28;20109;-79
2023/04/27 11:26:34;;;;;;;8.93;7.93;;;18.60;66.10;;;;;;4967527;28;20265;-81
2023/04/27 11:29:00;;;;;;;11.48;7.40;;;18.50;65.70;;;;;;4970447;28;20530;-81
2023/04/27 11:31:37;;;;;;;11.70;8.57;;;18.60;64.10;;;;;;4965855;28;20019;-82
2023/04/27 11:34:02;;;;;;;9.20;8.13;;;19.00;64.90;;;;;;4971193;28;20015;-80
2023/04/27 11:36:28;;;;;;;9.10;5.78;;;19.60;62.80;;;;;;4965359;28;20035;-81
2023/04/27 11:38:58;;;;;;;15.50;8.35;;;20.00;59.30;;;;;;4974984;28;20031;-82
2023/04/27 11:41:36;;;;;;;9.63;5.82;;;20.30;60.00;;;;;;4977256;28;20102;-81
2023/04/27 11:44:07;;;;;;;6.05;4.82;;;20.50;56.20;;;;;;4975544;28;20077;-83
2023/04/27 11:46:36;;;;;;;10.50;7.20;;;20.90;53.80;;;;;;4955250;28;20058;-82
2023/04/27 11:49:07;;;;;;;7.55;5.82;;;21.30;55.90;;;;;;4969218;28;20173;-81
2023/04/27 11:51:34;;;;;;;9.85;5.60;;;21.50;54.80;;;;;;4955969;28;20574;-82
2023/04/27 11:54:05;;;;;;;8.00;4.97;;;21.50;52.90;;;;;;4968028;28;20429;-81
2023/04/27 11:56:40;;;;;;;6.72;4.60;;;21.20;52.30;;;;;;4959772;28;20054;-81
2023/04/27 11:59:18;;;;;;;6.30;4.78;;;21.00;52.20;;;;;;4941492;28;20073;-80
2023/04/27 12:01:43;;;;;;;8.20;6.18;;;20.70;52.80;;;;;;4958467;28;20362;-81
2023/04/27 12:04:09;;;;;;;11.48;7.03;;;20.50;52.70;;;;;;4963936;28;20041;-82
2023/04/27 12:06:36;;;;;;;6.13;5.40;;;20.40;52.90;;;;;;4971761;28;20069;-80
2023/04/27 12:09:03;;;;;;;9.23;5.18;;;20.60;52.60;;;;;;4972471;28;20034;-80
2023/04/27 12:11:28;;;;;;;8.90;6.27;;;20.80;52.40;;;;;;4973500;28;20041;-80
2023/04/27 12:13:55;;;;;;;8.10;5.32;;;21.00;53.40;;;;;;4991951;28;20034;-78
2023/04/27 12:16:21;;;;;;;9.32;6.90;;;21.10;51.80;;;;;;4958465;28;20027;-79
2023/04/27 12:18:51;;;;;;;14.55;6.72;;;20.90;53.50;;;;;;4975047;28;20114;-79
2023/04/27 12:21:17;;;;;;;9.98;6.28;;;21.00;53.40;;;;;;4975064;28;20027;-80
2023/04/27 12:23:43;;;;;;;8.88;6.68;;;20.90;53.30;;;;;;4975145;28;20029;-81
2023/04/27 12:26:09;;;;;;;7.10;5.55;;;20.70;53.70;;;;;;4962733;28;20429;-81
2023/04/27 12:28:36;;;;;;;8.88;6.43;;;20.60;52.50;;;;;;4946773;28;20424;-80
2023/04/27 12:31:05;;;;;;;5.80;5.20;;;20.50;52.90;;;;;;4971698;28;20028;-81
2023/04/27 12:33:31;;;;;;;9.73;5.40;;;20.40;52.80;;;;;;4958097;28;20035;-80
2023/04/27 12:35:57;;;;;;;8.25;5.50;;;20.40;52.70;;;;;;4961562;28;20428;-79
2023/04/27 12:38:22;;;;;;;9.15;5.53;;;20.30;52.80;;;;;;4981213;28;20023;-79
2023/04/27 12:40:48;;;;;;;6.65;5.53;;;20.30;52.60;;;;;;4968845;28;20031;-79
2023/04/27 12:43:14;;;;;;;10.70;6.47;;;20.30;53.20;;;;;;4961005;28;20019;-80